Nether Poppleton, United Kingdom
Current Conditions -  °F | °C
As of 8:50 AM on Sunday 28 Dec 2014 (Local Time) from EGXU Reporting Station
Clear Clear  
Wind Chill: 23°   Ceiling: Unl
Heat Index: 30°   Visibility: 6mi
Dew Point: 30°   Wind: 8mph
Humidity: 100%   Direction: 300°WNW
Pressure: 30.45"   Gusts: NA
Location:  53.99°N, 1.15°W
Report Text: EGXU 280850Z AUTO 30007KT 9000 // NCD M01/M01 Q1031
Loading
Personal Weather Stations






























Interactive Weather Map New forecast layout! Learn more

10-Day Weather Forecast

Advertisements
Track Severe Weather on mobile